KBKL/BKL METAR and TAF weather

Enter ICAO airport designator
Station Type Date Time Source
KBKL METAR 2018/07/20 13:53 UTC NOAA

KBKL 201353Z 16011KT 10SM CLR 26/16 A2991 RMK AO2 SLP122 T02610161


Station Type Date Time Source
KBKL Decoded METAR 2018/07/20 13:53 UTC NOAA

CLEVELAND BURKE LAKEFRONT, OH, United States (KBKL) 41-32N 81-40W 184M
Jul 20, 2018 - 09:53 AM EDT / 2018.07.20 1353 UTC
Wind: from the SSE (160 degrees) at 13 MPH (11 KT):0
Visibility: 10 mile(s):0
Sky conditions: clear
Temperature: 79.0 F (26.1 C)
Dew Point: 61.0 F (16.1 C)
Relative Humidity: 54%
Pressure (altimeter): 29.91 in. Hg (1012 hPa)
ob: KBKL 201353Z 16011KT 10SM CLR 26/16 A2991 RMK AO2 SLP122 T02610161
cycle: 14

Station Type Date Time Source
KBKL TAF UTC NOAA

Error!


Example: see airport list